Time;durP1;ratioP1;P1;durP2;ratioP2;P2;SDS_P1;SDS_P2;PMS_P1;PMS_P2;Temp;Humidity;BMP_temperature;BMP_pressure;BME280_temperature;BME280_humidity;BME280_pressure;Samples;Min_cycle;Max_cycle;Signal;HPM_P1;HPM_P2
2021/03/22 00:01:57;;;;;;;21.63;5.30;;;5.20;78.00;;;;;;5024987;28;20033;-74
2021/03/22 00:04:23;;;;;;;20.75;5.25;;;5.10;77.90;;;;;;5026240;28;20030;-74
2021/03/22 00:06:49;;;;;;;24.02;5.10;;;5.10;78.10;;;;;;5019934;28;20030;-75
2021/03/22 00:09:16;;;;;;;23.17;4.85;;;5.10;78.20;;;;;;5024077;28;20044;-75
2021/03/22 00:11:42;;;;;;;17.52;4.45;;;5.10;78.20;;;;;;5034426;28;20049;-74
2021/03/22 00:14:08;;;;;;;16.70;4.80;;;5.10;78.40;;;;;;5033287;28;20049;-75
2021/03/22 00:16:34;;;;;;;25.00;5.57;;;5.10;78.60;;;;;;5049225;28;20034;-74
2021/03/22 00:19:01;;;;;;;21.38;5.70;;;5.10;78.80;;;;;;5034186;28;20033;-77
2021/03/22 00:21:27;;;;;;;28.60;6.38;;;5.00;78.90;;;;;;5026496;28;20042;-74
2021/03/22 00:23:53;;;;;;;26.50;6.78;;;5.00;79.00;;;;;;5016021;28;20049;-74
2021/03/22 00:26:20;;;;;;;21.83;5.70;;;5.10;79.10;;;;;;5018808;28;20025;-75
2021/03/22 00:28:46;;;;;;;26.27;5.25;;;5.10;79.10;;;;;;5029161;28;20471;-75
2021/03/22 00:31:15;;;;;;;22.08;5.80;;;5.10;79.40;;;;;;5014994;28;20038;-75
2021/03/22 00:33:42;;;;;;;20.33;5.95;;;5.00;79.50;;;;;;5015508;28;20045;-74
2021/03/22 00:36:09;;;;;;;18.50;4.55;;;5.00;79.40;;;;;;5014687;28;20040;-74
2021/03/22 00:38:36;;;;;;;17.13;4.60;;;5.00;79.60;;;;;;5015511;28;20033;-75
2021/03/22 00:41:03;;;;;;;27.63;6.25;;;5.00;79.40;;;;;;5013886;28;20029;-76
2021/03/22 00:43:29;;;;;;;21.67;4.95;;;5.00;79.60;;;;;;5015288;28;20391;-75
2021/03/22 00:45:59;;;;;;;18.05;5.70;;;5.00;79.80;;;;;;5028524;28;20390;-75
2021/03/22 00:48:27;;;;;;;29.52;5.15;;;5.00;79.40;;;;;;5034438;28;20482;-77
2021/03/22 00:50:53;;;;;;;24.38;5.47;;;5.00;79.40;;;;;;5049730;28;20045;-75
2021/03/22 00:53:21;;;;;;;23.40;4.53;;;5.00;79.30;;;;;;5024865;28;20045;-75
2021/03/22 00:55:47;;;;;;;23.75;4.72;;;5.00;79.10;;;;;;5023738;28;20038;-75
2021/03/22 00:58:15;;;;;;;23.15;5.70;;;5.00;79.10;;;;;;5024050;28;20029;-75
2021/03/22 01:00:54;;;;;;;32.08;5.13;;;5.00;79.20;;;;;;5015555;28;20471;-75
2021/03/22 01:03:28;;;;;;;22.05;6.18;;;5.00;78.90;;;;;;5014061;28;20033;-76
2021/03/22 01:05:55;;;;;;;17.13;4.65;;;5.00;78.90;;;;;;5014791;28;20034;-75
2021/03/22 01:08:23;;;;;;;29.63;5.78;;;5.00;79.30;;;;;;5022997;28;20358;-75
2021/03/22 01:10:54;;;;;;;23.67;5.88;;;5.00;79.20;;;;;;5025418;28;20041;-75
2021/03/22 01:13:23;;;;;;;23.00;5.03;;;4.90;79.40;;;;;;5014261;28;20030;-75
2021/03/22 01:15:52;;;;;;;20.05;5.03;;;4.90;79.50;;;;;;5014393;28;20038;-75
2021/03/22 01:18:24;;;;;;;23.40;5.10;;;4.90;79.50;;;;;;4996996;28;20037;-74
2021/03/22 01:21:12;;;;;;;23.63;5.57;;;4.90;79.40;;;;;;5013883;28;20487;-74
2021/03/22 01:23:38;;;;;;;17.73;4.40;;;4.90;79.30;;;;;;5019358;28;20033;-74
2021/03/22 01:26:07;;;;;;;18.83;4.72;;;4.80;79.60;;;;;;5017732;28;20046;-74
2021/03/22 01:28:34;;;;;;;21.40;4.03;;;4.90;78.80;;;;;;5014409;28;20396;-74
2021/03/22 01:31:01;;;;;;;16.55;3.92;;;4.90;78.90;;;;;;5014273;28;20045;-77
2021/03/22 01:33:34;;;;;;;23.48;4.00;;;4.90;78.80;;;;;;5019150;28;20025;-74
2021/03/22 01:36:03;;;;;;;13.13;3.40;;;4.80;78.50;;;;;;5032731;28;20033;-75
2021/03/22 01:38:30;;;;;;;25.10;4.65;;;4.80;78.10;;;;;;5033248;28;20045;-73
2021/03/22 01:41:47;;;;;;;14.57;3.72;;;4.80;78.50;;;;;;5033127;28;20026;-73
2021/03/22 01:44:15;;;;;;;18.23;4.63;;;4.80;78.10;;;;;;5013904;28;20038;-74
2021/03/22 01:46:49;;;;;;;16.98;4.85;;;4.80;78.20;;;;;;5026777;28;20470;-74
2021/03/22 01:49:16;;;;;;;20.92;4.05;;;4.80;78.10;;;;;;5012228;28;20034;-74
2021/03/22 01:51:42;;;;;;;19.10;4.22;;;4.80;78.10;;;;;;5013902;28;20030;-75
2021/03/22 01:54:10;;;;;;;26.45;4.50;;;4.80;78.10;;;;;;5014723;28;20046;-75
2021/03/22 01:56:46;;;;;;;21.40;3.40;;;4.80;77.80;;;;;;5013831;28;20379;-75
2021/03/22 01:59:14;;;;;;;17.90;4.85;;;4.80;77.60;;;;;;5013222;28;20034;-74
2021/03/22 02:01:45;;;;;;;19.17;4.30;;;4.80;77.80;;;;;;5013740;28;20044;-74
2021/03/22 02:04:11;;;;;;;19.17;3.67;;;4.70;77.70;;;;;;5013623;28;20040;-74
2021/03/22 02:06:38;;;;;;;15.13;3.55;;;4.80;77.90;;;;;;5014372;28;20052;-76
2021/03/22 02:09:04;;;;;;;15.77;3.50;;;4.70;78.00;;;;;;5025940;28;20482;-77
2021/03/22 02:11:33;;;;;;;23.23;4.50;;;4.70;78.20;;;;;;5017989;28;20045;-74
2021/03/22 02:14:04;;;;;;;17.08;4.72;;;4.70;78.00;;;;;;5013649;28;20034;-75
2021/03/22 02:16:39;;;;;;;12.90;3.72;;;4.70;78.00;;;;;;5013705;28;20045;-75
2021/03/22 02:19:43;;;;;;;13.95;3.45;;;4.70;78.00;;;;;;5012366;28;20464;-75
2021/03/22 02:22:47;;;;;;;23.27;3.45;;;4.70;78.10;;;;;;4998402;28;20041;-75
2021/03/22 02:25:21;;;;;;;22.02;4.63;;;4.70;78.00;;;;;;5025469;28;20052;-75
2021/03/22 02:28:14;;;;;;;17.52;4.03;;;4.70;77.80;;;;;;5031746;28;20045;-75
2021/03/22 02:31:10;;;;;;;13.95;3.80;;;4.70;78.10;;;;;;5021671;28;20075;-74
2021/03/22 02:34:08;;;;;;;18.63;3.85;;;4.70;78.10;;;;;;5014085;28;20037;-75
2021/03/22 02:36:59;;;;;;;16.92;3.63;;;4.60;78.10;;;;;;5013177;28;20383;-74
2021/03/22 02:39:35;;;;;;;20.50;5.50;;;4.60;78.30;;;;;;5013542;28;20582;-75
2021/03/22 02:42:05;;;;;;;21.40;3.67;;;4.60;78.20;;;;;;5013847;28;20034;-75
2021/03/22 02:44:34;;;;;;;16.30;3.83;;;4.60;78.40;;;;;;5013297;28;20041;-75
2021/03/22 02:47:08;;;;;;;20.45;4.18;;;4.60;78.70;;;;;;5023627;28;20034;-74
2021/03/22 02:49:37;;;;;;;16.08;3.80;;;4.60;78.00;;;;;;5014096;28;20393;-75
2021/03/22 02:52:16;;;;;;;13.20;3.42;;;4.60;78.20;;;;;;5013036;28;20038;-77
2021/03/22 02:54:42;;;;;;;22.17;4.15;;;4.60;78.10;;;;;;5031762;28;20380;-74
2021/03/22 02:57:17;;;;;;;14.98;3.47;;;4.60;78.00;;;;;;5031482;28;20037;-74
2021/03/22 02:59:51;;;;;;;22.65;4.63;;;4.60;78.30;;;;;;5018606;28;20048;-74
2021/03/22 03:02:18;;;;;;;17.05;4.22;;;4.60;78.80;;;;;;5012519;28;20033;-75
2021/03/22 03:04:45;;;;;;;15.73;3.80;;;4.60;78.50;;;;;;5013419;28;20037;-75
2021/03/22 03:07:19;;;;;;;20.02;3.45;;;4.60;78.40;;;;;;5019125;28;20041;-74
2021/03/22 03:09:45;;;;;;;17.45;3.42;;;4.60;78.20;;;;;;5026426;28;20068;-74
2021/03/22 03:12:23;;;;;;;13.23;3.88;;;4.60;78.20;;;;;;5012180;28;20491;-75
2021/03/22 03:14:53;;;;;;;13.35;3.47;;;4.50;78.40;;;;;;5029176;28;20053;-74
2021/03/22 03:17:20;;;;;;;20.58;4.20;;;4.50;78.40;;;;;;5020634;28;20026;-74
2021/03/22 03:19:49;;;;;;;15.23;3.30;;;4.50;78.70;;;;;;5010200;28;20038;-74
2021/03/22 03:22:16;;;;;;;13.30;3.78;;;4.50;78.50;;;;;;5013134;28;20050;-75
2021/03/22 03:24:42;;;;;;;10.15;2.75;;;4.50;78.50;;;;;;5024576;28;20026;-74
2021/03/22 03:27:10;;;;;;;23.20;4.00;;;4.50;78.60;;;;;;5011997;28;20034;-74
2021/03/22 03:29:38;;;;;;;18.25;4.28;;;4.50;78.80;;;;;;5018199;28;20042;-74
2021/03/22 03:32:06;;;;;;;16.33;3.80;;;4.50;78.80;;;;;;5022873;28;20041;-77
2021/03/22 03:34:33;;;;;;;17.08;4.72;;;4.50;78.50;;;;;;5023514;28;20371;-75
2021/03/22 03:36:59;;;;;;;12.10;2.50;;;4.50;78.50;;;;;;5024214;28;20046;-74
2021/03/22 03:39:26;;;;;;;16.92;3.90;;;4.50;78.80;;;;;;5015758;28;20026;-74
2021/03/22 03:41:52;;;;;;;17.83;2.50;;;4.50;78.50;;;;;;5016892;28;20050;-74
2021/03/22 03:44:19;;;;;;;13.32;2.92;;;4.50;78.50;;;;;;5019977;28;20026;-74
2021/03/22 03:46:45;;;;;;;24.85;4.30;;;4.40;78.60;;;;;;5033049;28;20030;-74
2021/03/22 03:49:11;;;;;;;15.85;3.08;;;4.50;78.90;;;;;;4998599;28;20050;-75
2021/03/22 03:51:38;;;;;;;18.55;3.10;;;4.50;79.00;;;;;;5016305;28;20030;-74
2021/03/22 03:54:06;;;;;;;12.30;3.63;;;4.40;78.80;;;;;;5015925;28;20042;-77
2021/03/22 03:56:34;;;;;;;14.90;3.42;;;4.40;78.80;;;;;;5028379;28;20037;-75
2021/03/22 03:59:00;;;;;;;19.88;3.53;;;4.50;78.70;;;;;;5025028;28;20050;-75
2021/03/22 04:01:27;;;;;;;14.93;2.47;;;4.50;78.70;;;;;;5015557;28;20056;-75
2021/03/22 04:03:54;;;;;;;15.05;3.00;;;4.50;78.90;;;;;;5018100;28;20041;-75
2021/03/22 04:06:26;;;;;;;15.40;3.33;;;4.50;78.80;;;;;;5034956;28;20471;-75
2021/03/22 04:08:58;;;;;;;13.20;2.83;;;4.40;78.70;;;;;;5034253;28;20347;-75
2021/03/22 04:11:28;;;;;;;23.02;4.15;;;4.50;79.00;;;;;;5021967;28;20038;-75
2021/03/22 04:13:56;;;;;;;17.50;3.53;;;4.40;79.10;;;;;;5027224;28;20044;-74
2021/03/22 04:16:25;;;;;;;18.80;3.75;;;4.40;79.10;;;;;;5026789;28;20288;-73
2021/03/22 04:18:52;;;;;;;17.45;3.60;;;4.40;79.40;;;;;;5029311;28;20049;-74
2021/03/22 04:21:22;;;;;;;14.68;3.67;;;4.40;79.20;;;;;;5025077;28;20042;-74
2021/03/22 04:23:48;;;;;;;12.27;3.45;;;4.40;79.60;;;;;;5015097;28;20030;-74
2021/03/22 04:26:15;;;;;;;16.95;3.42;;;4.40;79.70;;;;;;5014931;28;20042;-75
2021/03/22 04:28:43;;;;;;;14.68;3.78;;;4.40;79.70;;;;;;5015724;28;20030;-74
2021/03/22 04:31:12;;;;;;;14.90;4.60;;;4.40;79.80;;;;;;5015090;28;20034;-74
2021/03/22 04:33:39;;;;;;;9.77;2.60;;;4.40;79.90;;;;;;5015165;28;20037;-74
2021/03/22 04:36:05;;;;;;;15.60;3.40;;;4.40;80.10;;;;;;5015481;28;20038;-77
2021/03/22 04:38:32;;;;;;;12.52;2.55;;;4.30;80.30;;;;;;5015410;28;20380;-74
2021/03/22 04:40:58;;;;;;;15.18;4.47;;;4.40;80.20;;;;;;5022953;28;20046;-74
2021/03/22 04:43:25;;;;;;;12.10;3.28;;;4.40;80.30;;;;;;5014864;28;20037;-74
2021/03/22 04:45:51;;;;;;;17.00;2.85;;;4.40;80.70;;;;;;5015055;28;20045;-74
2021/03/22 04:48:17;;;;;;;14.68;4.15;;;4.40;80.70;;;;;;5033626;28;20050;-75
2021/03/22 04:50:44;;;;;;;14.52;3.00;;;4.40;80.80;;;;;;5023212;28;20369;-74
2021/03/22 04:53:10;;;;;;;16.10;3.63;;;4.40;80.70;;;;;;5014279;28;20045;-75
2021/03/22 04:55:37;;;;;;;10.82;2.88;;;4.40;80.50;;;;;;5013830;28;20042;-75
2021/03/22 04:58:03;;;;;;;16.17;3.92;;;4.40;81.00;;;;;;5032906;28;20386;-74
2021/03/22 05:00:40;;;;;;;18.67;3.15;;;4.40;80.70;;;;;;5015045;28;20392;-74
2021/03/22 05:03:08;;;;;;;13.00;2.80;;;4.40;80.60;;;;;;5028098;28;20030;-76
2021/03/22 05:05:35;;;;;;;16.38;3.80;;;4.40;80.70;;;;;;5019185;28;20459;-75
2021/03/22 05:08:04;;;;;;;10.95;3.20;;;4.40;80.70;;;;;;5031667;28;20049;-74
2021/03/22 05:10:36;;;;;;;14.88;3.15;;;4.40;80.40;;;;;;5023410;28;20037;-74
2021/03/22 05:13:04;;;;;;;16.45;3.28;;;4.40;80.20;;;;;;5033278;28;20038;-74
2021/03/22 05:15:30;;;;;;;18.20;3.75;;;4.40;80.10;;;;;;5039372;28;20034;-74
2021/03/22 05:17:57;;;;;;;14.75;3.20;;;4.40;79.80;;;;;;5032879;28;20036;-75
2021/03/22 05:20:34;;;;;;;9.20;2.65;;;4.40;79.90;;;;;;5023405;28;20029;-75
2021/03/22 05:23:02;;;;;;;16.65;3.20;;;4.40;79.80;;;;;;5027174;28;20415;-75
2021/03/22 05:25:28;;;;;;;10.43;2.72;;;4.40;79.50;;;;;;5015394;28;20614;-75
2021/03/22 05:27:55;;;;;;;13.07;2.85;;;4.40;79.90;;;;;;5021339;28;20029;-76
2021/03/22 05:30:22;;;;;;;11.80;2.35;;;4.40;79.90;;;;;;5013879;28;20414;-75
2021/03/22 05:32:48;;;;;;;14.63;2.80;;;4.40;79.70;;;;;;5014291;28;20037;-75
2021/03/22 05:35:19;;;;;;;8.80;2.35;;;4.40;79.60;;;;;;5018329;28;20032;-75
2021/03/22 05:37:46;;;;;;;11.55;2.70;;;4.40;80.20;;;;;;5028898;28;20386;-75
2021/03/22 05:40:27;;;;;;;14.57;3.63;;;4.40;80.30;;;;;;5014103;28;20042;-75
2021/03/22 05:43:33;;;;;;;15.00;2.92;;;4.40;80.40;;;;;;5028096;28;20033;-75
2021/03/22 05:46:28;;;;;;;10.10;3.60;;;4.40;80.30;;;;;;5014323;28;20057;-75
2021/03/22 05:49:25;;;;;;;12.18;2.67;;;4.50;80.70;;;;;;5017809;28;20033;-75
2021/03/22 05:52:13;;;;;;;15.45;3.60;;;4.50;80.80;;;;;;5025765;28;20030;-74
2021/03/22 05:55:01;;;;;;;19.05;4.50;;;4.40;81.00;;;;;;5023223;28;20042;-74
2021/03/22 05:57:45;;;;;;;15.98;3.20;;;4.40;81.20;;;;;;5013695;28;20038;-78
2021/03/22 06:00:34;;;;;;;15.45;2.95;;;4.50;81.10;;;;;;5015744;28;20037;-78
2021/03/22 06:03:27;;;;;;;12.75;2.72;;;4.40;81.20;;;;;;5016870;28;20491;-77
2021/03/22 06:06:07;;;;;;;12.45;2.70;;;4.50;81.90;;;;;;5038416;28;20038;-78
2021/03/22 06:08:43;;;;;;;12.57;3.70;;;4.50;81.80;;;;;;5047524;28;20067;-78
2021/03/22 06:11:34;;;;;;;10.60;3.58;;;4.50;81.90;;;;;;5016868;28;20036;-79
2021/03/22 06:14:25;;;;;;;16.92;3.35;;;4.60;81.80;;;;;;5033574;28;20476;-78
2021/03/22 06:17:07;;;;;;;10.75;4.10;;;4.50;81.80;;;;;;5026291;28;20042;-78
2021/03/22 06:19:36;;;;;;;13.98;2.78;;;4.60;81.70;;;;;;5016411;28;20060;-78
2021/03/22 06:22:04;;;;;;;13.30;3.13;;;4.60;82.00;;;;;;5044366;28;20069;-78
2021/03/22 06:24:31;;;;;;;13.27;3.55;;;4.60;81.90;;;;;;5027104;28;20033;-77
2021/03/22 06:27:00;;;;;;;13.82;3.67;;;4.60;82.20;;;;;;5019672;28;20088;-78
2021/03/22 06:29:28;;;;;;;15.82;4.32;;;4.60;82.10;;;;;;5013106;28;20045;-78
2021/03/22 06:32:17;;;;;;;19.92;4.38;;;4.70;82.10;;;;;;5013625;28;20030;-78
2021/03/22 06:35:03;;;;;;;21.20;3.47;;;4.70;82.50;;;;;;5004243;28;20042;-77
2021/03/22 06:37:36;;;;;;;14.50;3.60;;;4.70;82.50;;;;;;5024260;28;20188;-78
2021/03/22 06:40:11;;;;;;;10.48;3.05;;;4.70;82.60;;;;;;5015432;28;20400;-78
2021/03/22 06:42:39;;;;;;;17.65;4.65;;;4.70;82.60;;;;;;5015070;28;20491;-78
2021/03/22 06:45:27;;;;;;;16.70;3.53;;;4.70;82.70;;;;;;5026536;28;20038;-78
2021/03/22 06:48:30;;;;;;;14.95;4.10;;;4.70;82.70;;;;;;4995667;28;20048;-77
2021/03/22 06:51:02;;;;;;;20.67;5.93;;;4.80;83.00;;;;;;5015980;28;20029;-75
2021/03/22 06:53:38;;;;;;;12.32;4.40;;;4.80;83.20;;;;;;5024247;28;20494;-75
2021/03/22 06:56:38;;;;;;;15.13;3.50;;;4.90;83.30;;;;;;5027222;28;20402;-76
2021/03/22 06:59:21;;;;;;;11.52;3.53;;;4.90;83.40;;;;;;5024302;28;20045;-75
2021/03/22 07:01:50;;;;;;;15.35;3.60;;;4.90;83.50;;;;;;5027565;28;20052;-75
2021/03/22 07:04:20;;;;;;;16.33;4.50;;;4.90;84.30;;;;;;5024159;28;20475;-78
2021/03/22 07:07:14;;;;;;;18.90;3.83;;;5.00;83.40;;;;;;5015897;28;20033;-79
2021/03/22 07:09:45;;;;;;;18.27;4.25;;;4.90;83.90;;;;;;5013280;28;20046;-79
2021/03/22 07:12:37;;;;;;;8.20;3.17;;;4.90;84.00;;;;;;5019811;28;20030;-78
2021/03/22 07:15:17;;;;;;;12.23;4.00;;;4.90;83.90;;;;;;5013245;28;20038;-79
2021/03/22 07:17:44;;;;;;;16.00;4.65;;;5.00;84.10;;;;;;5026676;28;20037;-79
2021/03/22 07:20:15;;;;;;;16.27;4.10;;;4.90;84.40;;;;;;5029945;28;20037;-78
2021/03/22 07:22:42;;;;;;;17.52;5.60;;;4.90;84.40;;;;;;5012691;28;20030;-80
2021/03/22 07:25:11;;;;;;;18.02;4.88;;;4.90;84.30;;;;;;5013186;28;20034;-79
2021/03/22 07:27:37;;;;;;;17.20;4.53;;;5.00;84.80;;;;;;5018906;28;20398;-79
2021/03/22 07:30:20;;;;;;;17.60;4.32;;;5.00;84.60;;;;;;5028254;28;20037;-79
2021/03/22 07:33:10;;;;;;;14.05;4.47;;;5.10;84.80;;;;;;5012875;28;20463;-79
2021/03/22 07:36:01;;;;;;;13.70;5.20;;;5.10;84.50;;;;;;5019878;28;20030;-79
2021/03/22 07:38:54;;;;;;;13.07;4.18;;;5.10;84.20;;;;;;5019826;28;20478;-78
2021/03/22 07:42:08;;;;;;;13.20;4.80;;;5.10;84.50;;;;;;5029038;28;20029;-78
2021/03/22 07:44:37;;;;;;;11.55;4.10;;;5.10;84.70;;;;;;5039827;28;20088;-76
2021/03/22 07:47:48;;;;;;;11.40;4.63;;;5.10;84.50;;;;;;5014320;28;20038;-76
2021/03/22 07:50:32;;;;;;;16.00;4.25;;;5.20;84.90;;;;;;5021198;28;20053;-76
2021/03/22 07:53:13;;;;;;;15.48;4.13;;;5.30;84.50;;;;;;5017934;28;20368;-76
2021/03/22 07:56:08;;;;;;;12.18;5.47;;;5.40;83.90;;;;;;5012254;28;20355;-77
2021/03/22 07:58:57;;;;;;;15.77;5.13;;;5.60;83.50;;;;;;5011793;28;20030;-77
2021/03/22 08:01:42;;;;;;;15.02;4.72;;;5.40;83.40;;;;;;5011496;28;20136;-76
2021/03/22 08:04:26;;;;;;;9.18;3.63;;;5.40;83.70;;;;;;5012528;28;20030;-77
2021/03/22 08:07:33;;;;;;;12.05;3.72;;;5.40;83.60;;;;;;5030514;28;20041;-77
2021/03/22 08:10:22;;;;;;;12.45;4.43;;;5.60;83.50;;;;;;5018521;28;20046;-76
2021/03/22 08:13:21;;;;;;;9.43;4.03;;;5.70;83.10;;;;;;5027064;28;20037;-78
2021/03/22 08:16:13;;;;;;;10.23;4.30;;;5.60;82.70;;;;;;5018554;28;20467;-78
2021/03/22 08:18:39;;;;;;;;;;;5.70;82.80;;;;;;5029134;28;20041;-78
2021/03/22 08:21:09;;;;;;;14.93;4.65;;;5.80;82.50;;;;;;5016746;28;20000;-78
2021/03/22 08:24:11;;;;;;;9.38;3.10;;;5.80;82.50;;;;;;5015073;28;20026;-76
2021/03/22 08:26:57;;;;;;;9.63;4.30;;;5.70;82.60;;;;;;5019186;28;20030;-83
2021/03/22 08:29:26;;;;;;;11.43;3.97;;;5.70;82.50;;;;;;5031160;28;20030;-82
2021/03/22 08:32:17;;;;;;;17.23;4.70;;;5.80;82.60;;;;;;5015581;28;20049;-83
2021/03/22 08:34:54;;;;;;;14.63;5.18;;;6.10;81.50;;;;;;5029862;28;20455;-80
2021/03/22 08:37:53;;;;;;;12.35;6.07;;;6.10;81.00;;;;;;5015190;28;20037;-82
2021/03/22 08:40:42;;;;;;;7.97;4.60;;;6.20;81.40;;;;;;5018218;28;20037;-81
2021/03/22 08:43:35;;;;;;;17.73;4.07;;;6.10;80.70;;;;;;5018030;28;20045;-83
2021/03/22 08:46:29;;;;;;;12.05;4.20;;;6.00;81.60;;;;;;5017179;28;20375;-78
2021/03/22 08:48:59;;;;;;;16.45;4.13;;;6.00;81.80;;;;;;5029685;28;20056;-77
2021/03/22 08:51:33;;;;;;;10.75;4.30;;;6.00;81.40;;;;;;5032927;28;20459;-78
2021/03/22 08:54:00;;;;;;;10.25;3.75;;;6.10;80.50;;;;;;5019132;28;20118;-78
2021/03/22 08:56:39;;;;;;;13.18;4.32;;;6.10;80.60;;;;;;5014847;28;20082;-78
2021/03/22 08:59:11;;;;;;;12.18;5.30;;;6.10;80.70;;;;;;5032625;28;20483;-77
2021/03/22 09:01:40;;;;;;;13.95;5.47;;;6.20;80.60;;;;;;5017356;28;20040;-79
2021/03/22 09:04:25;;;;;;;16.23;4.68;;;6.40;80.60;;;;;;5032013;28;20052;-79
2021/03/22 09:07:21;;;;;;;13.00;4.55;;;6.70;78.90;;;;;;5020087;28;20036;-78
2021/03/22 09:09:49;;;;;;;12.10;3.53;;;6.70;78.50;;;;;;5027718;28;20426;-77
2021/03/22 09:12:33;;;;;;;11.55;4.30;;;6.70;78.10;;;;;;5014776;28;20029;-78
2021/03/22 09:15:12;;;;;;;12.32;3.92;;;6.60;79.20;;;;;;5015294;28;20037;-79
2021/03/22 09:17:47;;;;;;;12.55;4.10;;;6.60;78.40;;;;;;5015086;28;20045;-78
2021/03/22 09:20:27;;;;;;;12.80;3.70;;;6.60;78.50;;;;;;5014356;28;20033;-78
2021/03/22 09:23:04;;;;;;;9.77;3.90;;;6.70;78.30;;;;;;5025778;28;20056;-78
2021/03/22 09:25:56;;;;;;;11.93;3.80;;;6.60;78.10;;;;;;5031006;28;20381;-78
2021/03/22 09:28:25;;;;;;;14.48;3.53;;;6.60;78.00;;;;;;5027808;28;20045;-77
2021/03/22 09:31:25;;;;;;;8.43;3.47;;;6.60;77.30;;;;;;5040324;28;20044;-78
2021/03/22 09:34:40;;;;;;;10.73;3.72;;;6.70;77.50;;;;;;5020671;28;20030;-77
2021/03/22 09:37:45;;;;;;;8.20;3.22;;;6.80;77.50;;;;;;5013891;28;20038;-78
2021/03/22 09:40:17;;;;;;;9.02;3.30;;;6.60;77.70;;;;;;5015266;28;20045;-78
2021/03/22 09:42:44;;;;;;;10.82;2.92;;;6.90;77.30;;;;;;5033182;28;20033;-77
2021/03/22 09:45:19;;;;;;;9.63;3.10;;;7.20;75.60;;;;;;5031554;28;20041;-78
2021/03/22 09:48:05;;;;;;;5.00;3.38;;;7.20;75.40;;;;;;5032597;28;20033;-77
2021/03/22 09:50:34;;;;;;;10.43;2.83;;;7.20;75.00;;;;;;5017455;28;20479;-78
2021/03/22 09:53:21;;;;;;;10.85;3.65;;;6.90;76.00;;;;;;5032197;28;20054;-79
2021/03/22 09:56:04;;;;;;;9.65;3.05;;;7.10;75.10;;;;;;5028095;28;20046;-79
2021/03/22 09:58:35;;;;;;;13.50;4.10;;;7.10;75.40;;;;;;5012579;28;20054;-77
2021/03/22 10:01:13;;;;;;;9.88;4.43;;;7.20;74.80;;;;;;5013875;28;20030;-78
2021/03/22 10:03:49;;;;;;;7.03;2.80;;;6.90;75.50;;;;;;5030807;28;20052;-77
2021/03/22 10:06:41;;;;;;;8.55;2.83;;;7.00;75.50;;;;;;5013401;28;20495;-77
2021/03/22 10:09:34;;;;;;;9.80;3.00;;;7.10;74.10;;;;;;5013587;28;20041;-78
2021/03/22 10:12:10;;;;;;;7.65;3.50;;;6.90;74.60;;;;;;5013487;28;20108;-78
2021/03/22 10:14:40;;;;;;;7.60;3.67;;;6.90;75.90;;;;;;5013204;28;20036;-78
2021/03/22 10:17:17;;;;;;;10.82;4.32;;;7.00;75.30;;;;;;5024184;28;20475;-78
2021/03/22 10:19:45;;;;;;;9.48;3.33;;;7.00;75.50;;;;;;5013808;28;20036;-77
2021/03/22 10:22:17;;;;;;;13.93;3.10;;;6.90;74.50;;;;;;5013425;28;20034;-78
2021/03/22 10:25:02;;;;;;;11.32;3.53;;;6.90;75.00;;;;;;5021852;28;20045;-77
2021/03/22 10:27:35;;;;;;;8.43;2.72;;;7.00;74.40;;;;;;5028671;28;20040;-78
2021/03/22 10:30:22;;;;;;;12.32;2.95;;;7.10;74.20;;;;;;5013225;28;20468;-78
2021/03/22 10:32:59;;;;;;;9.02;2.53;;;7.20;74.30;;;;;;5013175;28;20032;-77
2021/03/22 10:35:56;;;;;;;6.53;3.03;;;7.20;73.90;;;;;;5020134;28;20033;-78
2021/03/22 10:38:37;;;;;;;10.60;4.07;;;7.30;74.00;;;;;;5014921;28;20476;-77
2021/03/22 10:41:22;;;;;;;10.18;4.68;;;7.30;74.40;;;;;;5013459;28;20038;-77
2021/03/22 10:43:57;;;;;;;9.00;3.60;;;7.50;74.50;;;;;;5018893;28;20042;-78
2021/03/22 10:46:27;;;;;;;8.95;3.88;;;7.60;73.40;;;;;;5020185;28;20037;-77
2021/03/22 10:49:01;;;;;;;7.85;2.88;;;7.60;73.50;;;;;;5012830;28;20040;-78
2021/03/22 10:51:50;;;;;;;10.43;3.42;;;7.50;73.00;;;;;;5028075;28;20052;-77
2021/03/22 10:54:41;;;;;;;8.80;2.75;;;7.50;72.80;;;;;;5022340;28;20057;-78
2021/03/22 10:57:17;;;;;;;7.50;2.83;;;7.20;72.80;;;;;;5013041;28;20034;-77
2021/03/22 10:59:47;;;;;;;5.82;2.20;;;7.00;73.70;;;;;;5025055;28;20486;-77
2021/03/22 11:02:39;;;;;;;4.93;2.10;;;6.90;73.10;;;;;;5013986;28;20387;-78
2021/03/22 11:05:12;;;;;;;;;;;7.00;73.20;;;;;;5013307;28;20037;-79
2021/03/22 11:07:39;;;;;;;11.77;2.80;;;6.90;73.40;;;;;;5012509;28;19913;-79
2021/03/22 11:10:14;;;;;;;8.00;2.38;;;7.00;73.80;;;;;;5012670;28;20093;-77
2021/03/22 11:12:43;;;;;;;5.30;2.00;;;7.00;73.40;;;;;;5012631;28;20041;-78
2021/03/22 11:15:26;;;;;;;5.50;1.85;;;6.90;73.60;;;;;;5013102;28;20033;-79
2021/03/22 11:17:53;;;;;;;6.60;2.97;;;7.00;73.20;;;;;;5013052;28;20050;-78
2021/03/22 11:20:21;;;;;;;4.55;2.42;;;7.20;73.50;;;;;;5012567;28;20034;-77
2021/03/22 11:22:49;;;;;;;6.18;2.95;;;7.30;72.50;;;;;;5012669;28;20387;-78
2021/03/22 11:25:34;;;;;;;6.95;2.85;;;7.40;72.10;;;;;;5012856;28;20049;-78
2021/03/22 11:28:06;;;;;;;6.40;2.42;;;7.40;72.80;;;;;;5012506;28;20050;-78
2021/03/22 11:30:36;;;;;;;11.15;2.50;;;7.40;72.60;;;;;;5025971;28;20040;-78
2021/03/22 11:33:08;;;;;;;5.68;3.10;;;7.40;72.10;;;;;;5030492;28;20030;-79
2021/03/22 11:35:35;;;;;;;8.45;2.67;;;7.50;72.30;;;;;;5021658;28;20040;-76
2021/03/22 11:38:03;;;;;;;4.32;2.35;;;7.40;71.20;;;;;;5019875;28;20053;-77
2021/03/22 11:40:43;;;;;;;6.60;1.98;;;7.40;71.50;;;;;;5026695;28;20041;-77
2021/03/22 11:43:37;;;;;;;4.95;2.47;;;7.80;71.20;;;;;;5026730;28;20042;-77
2021/03/22 11:46:25;;;;;;;4.47;1.80;;;7.80;69.90;;;;;;5018248;28;20029;-77
2021/03/22 11:48:51;;;;;;;8.52;2.53;;;7.80;69.10;;;;;;5022165;28;20041;-77
2021/03/22 11:51:17;;;;;;;6.10;2.72;;;7.50;70.20;;;;;;5028433;28;20045;-78
2021/03/22 11:54:13;;;;;;;4.30;2.30;;;7.50;71.00;;;;;;5017036;28;20042;-78
2021/03/22 11:56:52;;;;;;;6.10;2.55;;;7.40;70.70;;;;;;5022665;28;20049;-77
2021/03/22 11:59:23;;;;;;;5.85;3.00;;;7.30;71.50;;;;;;5034222;28;20033;-78
2021/03/22 12:02:01;;;;;;;6.25;2.83;;;7.20;71.90;;;;;;5016648;28;20395;-78
2021/03/22 12:04:28;;;;;;;9.48;3.42;;;7.30;72.80;;;;;;5015882;28;20034;-77
2021/03/22 12:06:55;;;;;;;5.95;2.28;;;7.30;72.00;;;;;;5025418;28;20033;-78
2021/03/22 12:09:22;;;;;;;5.03;2.47;;;7.40;72.40;;;;;;5022978;28;20050;-78
2021/03/22 12:11:50;;;;;;;8.00;2.45;;;7.40;72.00;;;;;;5015968;28;20415;-78
2021/03/22 12:14:17;;;;;;;5.75;2.38;;;7.60;71.70;;;;;;5028843;28;20037;-77
2021/03/22 12:16:43;;;;;;;5.80;2.70;;;7.60;71.90;;;;;;5033825;28;20348;-77
2021/03/22 12:19:21;;;;;;;6.28;2.85;;;7.80;71.10;;;;;;5024541;28;20621;-78
2021/03/22 12:21:49;;;;;;;3.28;2.00;;;8.00;70.40;;;;;;5023669;28;20029;-78
2021/03/22 12:24:18;;;;;;;5.72;2.00;;;7.90;69.40;;;;;;5026218;28;20033;-78
2021/03/22 12:26:45;;;;;;;5.90;1.60;;;7.90;68.40;;;;;;5016197;28;20069;-77
2021/03/22 12:29:11;;;;;;;7.72;1.92;;;7.80;67.70;;;;;;5023288;28;20041;-78
2021/03/22 12:31:42;;;;;;;4.88;1.88;;;7.90;67.40;;;;;;5022702;28;20065;-77
2021/03/22 12:34:16;;;;;;;4.60;1.80;;;7.90;67.90;;;;;;5026031;28;20030;-78
2021/03/22 12:36:42;;;;;;;5.63;2.22;;;7.70;67.00;;;;;;5026137;28;20037;-78
2021/03/22 12:39:28;;;;;;;3.35;1.48;;;7.60;67.60;;;;;;5026122;28;20490;-79
2021/03/22 12:42:02;;;;;;;3.97;1.85;;;7.70;67.70;;;;;;5017711;28;20042;-78
2021/03/22 12:44:29;;;;;;;5.53;1.70;;;7.80;67.70;;;;;;5014687;28;20044;-78
2021/03/22 12:46:56;;;;;;;4.97;1.88;;;7.80;67.70;;;;;;5015315;28;20053;-79
2021/03/22 12:49:23;;;;;;;5.00;1.83;;;7.90;67.60;;;;;;5018144;28;20353;-78
2021/03/22 12:51:50;;;;;;;3.20;1.98;;;7.80;67.50;;;;;;5015229;28;20029;-80
2021/03/22 12:54:16;;;;;;;6.57;2.60;;;7.80;67.90;;;;;;5019551;28;20042;-78
2021/03/22 12:56:43;;;;;;;3.78;1.90;;;7.60;67.50;;;;;;5029271;28;20030;-78
2021/03/22 12:59:38;;;;;;;4.13;2.50;;;7.60;68.30;;;;;;5015116;28;20038;-79
2021/03/22 13:02:18;;;;;;;7.97;2.45;;;7.50;69.50;;;;;;5030572;28;20052;-78
2021/03/22 13:04:46;;;;;;;5.93;2.22;;;7.50;69.50;;;;;;5032818;28;20105;-78
2021/03/22 13:07:13;;;;;;;3.58;2.13;;;7.50;69.40;;;;;;5033279;28;20030;-78
2021/03/22 13:09:40;;;;;;;3.85;1.92;;;7.50;69.20;;;;;;5029089;28;20050;-79
2021/03/22 13:12:25;;;;;;;6.30;1.90;;;7.50;69.40;;;;;;5029803;28;20430;-80
2021/03/22 13:14:53;;;;;;;5.13;2.03;;;7.60;69.70;;;;;;5021747;28;20034;-79
2021/03/22 13:17:23;;;;;;;7.78;1.92;;;7.50;69.50;;;;;;5031325;28;20042;-79
2021/03/22 13:19:49;;;;;;;4.72;2.15;;;7.50;69.40;;;;;;5018616;28;20038;-77
2021/03/22 13:22:24;;;;;;;2.83;1.60;;;7.50;69.40;;;;;;5017555;28;20056;-80
2021/03/22 13:24:54;;;;;;;6.35;2.33;;;7.60;69.80;;;;;;5014803;28;20475;-78
2021/03/22 13:27:21;;;;;;;4.38;2.42;;;7.70;69.30;;;;;;5014242;28;20487;-79
2021/03/22 13:29:48;;;;;;;4.78;2.58;;;7.70;70.10;;;;;;5013593;28;20042;-78
2021/03/22 13:32:14;;;;;;;6.25;2.90;;;7.70;70.20;;;;;;5013213;28;20041;-78